sensor_id;sensor_type;location;lat;lon;timestamp;pressure;altitude;pressure_sealevel;temperature;humidity
60725;BME280;59881;36.722;-4.462;2022-11-28T00:01:41;101374.81;;;13.01;57.68
60725;BME280;59881;36.722;-4.462;2022-11-28T00:04:08;101278.25;;;12.55;57.41
60725;BME280;59881;36.722;-4.462;2022-11-28T00:06:39;101340.34;;;13.02;57.49
60725;BME280;59881;36.722;-4.462;2022-11-28T00:09:06;101292.31;;;12.96;57.30
60725;BME280;59881;36.722;-4.462;2022-11-28T00:11:32;101351.66;;;13.44;57.01
60725;BME280;59881;36.722;-4.462;2022-11-28T00:13:57;101350.28;;;13.52;56.71
60725;BME280;59881;36.722;-4.462;2022-11-28T00:16:23;101338.31;;;13.59;56.40
60725;BME280;59881;36.722;-4.462;2022-11-28T00:18:51;101260.47;;;13.23;56.04
60725;BME280;59881;36.722;-4.462;2022-11-28T00:21:19;100430.31;;;8.20;55.65
60725;BME280;59881;36.722;-4.462;2022-11-28T00:23:46;101311.84;;;13.59;55.84
60725;BME280;59881;36.722;-4.462;2022-11-28T00:26:22;101313.34;;;13.50;56.08
60725;BME280;59881;36.722;-4.462;2022-11-28T00:28:48;100485.00;;;8.42;55.92
60725;BME280;59881;36.722;-4.462;2022-11-28T00:31:19;101299.34;;;13.48;56.27
60725;BME280;59881;36.722;-4.462;2022-11-28T00:33:45;101285.50;;;13.44;56.48
60725;BME280;59881;36.722;-4.462;2022-11-28T00:36:12;101288.88;;;13.47;56.37
60725;BME280;59881;36.722;-4.462;2022-11-28T00:38:38;100764.09;;;10.46;55.95
60725;BME280;59881;36.722;-4.462;2022-11-28T00:41:10;100657.78;;;10.07;55.35
60725;BME280;59881;36.722;-4.462;2022-11-28T00:43:36;101277.06;;;14.02;54.98
60725;BME280;59881;36.722;-4.462;2022-11-28T00:46:02;100935.63;;;11.37;54.74
60725;BME280;59881;36.722;-4.462;2022-11-28T00:48:28;101279.28;;;14.08;55.16
60725;BME280;59881;36.722;-4.462;2022-11-28T00:50:54;101287.00;;;14.11;54.73
60725;BME280;59881;36.722;-4.462;2022-11-28T00:53:29;100816.06;;;11.24;54.52
60725;BME280;59881;36.722;-4.462;2022-11-28T00:55:54;100743.72;;;10.75;54.45
60725;BME280;59881;36.722;-4.462;2022-11-28T00:58:20;101300.13;;;14.13;54.56
60725;BME280;59881;36.722;-4.462;2022-11-28T01:00:45;101456.66;;;14.10;54.31
60725;BME280;59881;36.722;-4.462;2022-11-28T01:03:11;101299.72;;;14.06;54.35
60725;BME280;59881;36.722;-4.462;2022-11-28T01:05:40;101369.28;;;13.84;54.37
60725;BME280;59881;36.722;-4.462;2022-11-28T01:08:10;101419.38;;;14.00;54.64
60725;BME280;59881;36.722;-4.462;2022-11-28T01:10:41;101231.06;;;13.53;54.40
60725;BME280;59881;36.722;-4.462;2022-11-28T01:13:08;100855.84;;;11.21;54.51
60725;BME280;59881;36.722;-4.462;2022-11-28T01:15:34;101379.63;;;13.74;54.27
60725;BME280;59881;36.722;-4.462;2022-11-28T01:18:00;101292.75;;;13.92;55.08
60725;BME280;59881;36.722;-4.462;2022-11-28T01:20:27;100785.63;;;10.93;54.89
60725;BME280;59881;36.722;-4.462;2022-11-28T01:22:53;101245.56;;;13.73;55.04
60725;BME280;59881;36.722;-4.462;2022-11-28T01:25:18;100956.13;;;11.99;54.70
60725;BME280;59881;36.722;-4.462;2022-11-28T01:27:44;101403.06;;;14.06;54.92
60725;BME280;59881;36.722;-4.462;2022-11-28T01:30:09;101328.47;;;13.99;54.82
60725;BME280;59881;36.722;-4.462;2022-11-28T01:32:35;100858.38;;;11.23;55.15
60725;BME280;59881;36.722;-4.462;2022-11-28T01:35:00;100856.72;;;10.94;55.14
60725;BME280;59881;36.722;-4.462;2022-11-28T01:37:28;100379.06;;;8.00;55.23
60725;BME280;59881;36.722;-4.462;2022-11-28T01:39:54;101307.94;;;13.64;55.90
60725;BME280;59881;36.722;-4.462;2022-11-28T01:42:20;101313.66;;;13.58;56.11
60725;BME280;59881;36.722;-4.462;2022-11-28T01:47:18;100418.13;;;8.33;56.55
60725;BME280;59881;36.722;-4.462;2022-11-28T01:49:46;101259.88;;;13.58;56.87
60725;BME280;59881;36.722;-4.462;2022-11-28T01:52:15;100824.84;;;10.97;56.96
60725;BME280;59881;36.722;-4.462;2022-11-28T01:54:45;100872.31;;;11.37;57.16
60725;BME280;59881;36.722;-4.462;2022-11-28T01:57:19;101263.66;;;13.79;56.88
60725;BME280;59881;36.722;-4.462;2022-11-28T02:00:08;101312.09;;;14.18;56.79
60725;BME280;59881;36.722;-4.462;2022-11-28T02:02:45;101303.19;;;14.19;56.65
60725;BME280;59881;36.722;-4.462;2022-11-28T02:05:12;101186.09;;;13.40;56.50
60725;BME280;59881;36.722;-4.462;2022-11-28T02:07:38;101319.78;;;13.97;56.51
60725;BME280;59881;36.722;-4.462;2022-11-28T02:10:06;101262.72;;;13.68;56.63
60725;BME280;59881;36.722;-4.462;2022-11-28T02:32:27;101305.28;;;13.52;59.52
60725;BME280;59881;36.722;-4.462;2022-11-28T02:35:12;101193.78;;;12.79;59.58
60725;BME280;59881;36.722;-4.462;2022-11-28T02:45:53;101332.47;;;13.28;60.04
60725;BME280;59881;36.722;-4.462;2022-11-28T02:48:27;101326.72;;;13.21;60.54
60725;BME280;59881;36.722;-4.462;2022-11-28T02:51:02;101330.22;;;13.22;61.03
60725;BME280;59881;36.722;-4.462;2022-11-28T02:53:31;101436.69;;;13.25;61.01
60725;BME280;59881;36.722;-4.462;2022-11-28T02:55:58;101086.66;;;11.68;61.21
60725;BME280;59881;36.722;-4.462;2022-11-28T02:58:24;101341.28;;;13.29;61.61
60725;BME280;59881;36.722;-4.462;2022-11-28T03:00:50;101095.22;;;11.30;61.82
60725;BME280;59881;36.722;-4.462;2022-11-28T03:14:58;101156.09;;;12.50;63.50
60725;BME280;59881;36.722;-4.462;2022-11-28T03:17:34;101329.22;;;13.50;63.57
60725;BME280;59881;36.722;-4.462;2022-11-28T03:23:01;101337.38;;;13.47;63.96
60725;BME280;59881;36.722;-4.462;2022-11-28T03:25:57;101329.97;;;13.65;64.60
60725;BME280;59881;36.722;-4.462;2022-11-28T03:30:59;101328.91;;;13.68;64.11
60725;BME280;59881;36.722;-4.462;2022-11-28T03:33:31;101181.31;;;12.01;63.74
60725;BME280;59881;36.722;-4.462;2022-11-28T03:36:05;100481.34;;;8.44;64.27
60725;BME280;59881;36.722;-4.462;2022-11-28T03:38:39;101313.78;;;13.44;64.99
60725;BME280;59881;36.722;-4.462;2022-11-28T03:41:11;101321.28;;;13.50;65.57
60725;BME280;59881;36.722;-4.462;2022-11-28T03:43:43;101301.59;;;13.54;66.00
60725;BME280;59881;36.722;-4.462;2022-11-28T03:46:14;100848.84;;;10.80;65.87
60725;BME280;59881;36.722;-4.462;2022-11-28T03:48:52;101302.41;;;13.55;66.57
60725;BME280;59881;36.722;-4.462;2022-11-28T03:51:32;101306.13;;;13.52;66.33
60725;BME280;59881;36.722;-4.462;2022-11-28T03:54:15;100947.63;;;11.29;66.32
60725;BME280;59881;36.722;-4.462;2022-11-28T04:02:08;101235.81;;;13.10;67.05
60725;BME280;59881;36.722;-4.462;2022-11-28T04:07:45;101284.84;;;13.54;67.40
60725;BME280;59881;36.722;-4.462;2022-11-28T04:10:31;101230.53;;;13.22;67.53
60725;BME280;59881;36.722;-4.462;2022-11-28T04:16:20;101300.31;;;13.60;67.14
60725;BME280;59881;36.722;-4.462;2022-11-28T04:21:46;101289.84;;;13.58;67.46
60725;BME280;59881;36.722;-4.462;2022-11-28T04:24:40;101278.31;;;13.59;67.58
60725;BME280;59881;36.722;-4.462;2022-11-28T04:27:09;101279.97;;;13.60;67.58
60725;BME280;59881;36.722;-4.462;2022-11-28T04:29:43;101207.03;;;13.18;67.29
60725;BME280;59881;36.722;-4.462;2022-11-28T04:32:11;100969.59;;;10.73;67.47
60725;BME280;59881;36.722;-4.462;2022-11-28T04:34:39;101288.44;;;13.65;67.64
60725;BME280;59881;36.722;-4.462;2022-11-28T04:37:07;101298.84;;;13.69;67.04
60725;BME280;59881;36.722;-4.462;2022-11-28T04:39:35;101000.50;;;11.94;67.13
60725;BME280;59881;36.722;-4.462;2022-11-28T04:42:12;100959.44;;;11.63;67.37
60725;BME280;59881;36.722;-4.462;2022-11-28T04:44:55;101295.03;;;13.60;67.61
60725;BME280;59881;36.722;-4.462;2022-11-28T04:47:23;101179.41;;;12.83;67.68
60725;BME280;59881;36.722;-4.462;2022-11-28T04:49:50;101529.38;;;13.53;67.78
60725;BME280;59881;36.722;-4.462;2022-11-28T04:52:23;101313.75;;;13.57;68.36
60725;BME280;59881;36.722;-4.462;2022-11-28T04:55:07;100827.91;;;10.64;68.07
60725;BME280;59881;36.722;-4.462;2022-11-28T04:57:38;101322.88;;;13.65;68.45
60725;BME280;59881;36.722;-4.462;2022-11-28T05:00:09;101326.56;;;13.63;68.30
60725;BME280;59881;36.722;-4.462;2022-11-28T05:02:36;100808.78;;;10.48;68.46
60725;BME280;59881;36.722;-4.462;2022-11-28T05:05:13;101308.16;;;13.49;68.59
60725;BME280;59881;36.722;-4.462;2022-11-28T05:07:39;101236.97;;;13.05;68.59
60725;BME280;59881;36.722;-4.462;2022-11-28T05:10:05;101312.72;;;13.47;69.22
60725;BME280;59881;36.722;-4.462;2022-11-28T05:12:31;101386.31;;;13.27;68.90
60725;BME280;59881;36.722;-4.462;2022-11-28T05:14:57;100856.72;;;10.67;69.03
60725;BME280;59881;36.722;-4.462;2022-11-28T05:17:22;100907.25;;;11.01;69.02
60725;BME280;59881;36.722;-4.462;2022-11-28T05:19:48;101353.25;;;13.47;68.81
60725;BME280;59881;36.722;-4.462;2022-11-28T05:22:13;101304.13;;;13.30;69.08
60725;BME280;59881;36.722;-4.462;2022-11-28T05:24:39;100867.88;;;10.71;68.98
60725;BME280;59881;36.722;-4.462;2022-11-28T05:27:04;100907.94;;;10.90;69.14
60725;BME280;59881;36.722;-4.462;2022-11-28T05:29:30;101329.53;;;13.45;69.32
60725;BME280;59881;36.722;-4.462;2022-11-28T05:31:55;100899.88;;;10.79;69.36
60725;BME280;59881;36.722;-4.462;2022-11-28T05:34:21;101335.78;;;13.44;69.47
60725;BME280;59881;36.722;-4.462;2022-11-28T05:36:46;101333.34;;;13.41;69.51
60725;BME280;59881;36.722;-4.462;2022-11-28T05:39:12;101289.69;;;13.09;69.31
60725;BME280;59881;36.722;-4.462;2022-11-28T05:41:37;101069.19;;;11.80;69.41
60725;BME280;59881;36.722;-4.462;2022-11-28T05:44:03;100963.59;;;11.13;69.33
60725;BME280;59881;36.722;-4.462;2022-11-28T05:46:28;100649.38;;;9.03;69.34
60725;BME280;59881;36.722;-4.462;2022-11-28T05:48:55;101205.78;;;12.45;69.67
60725;BME280;59881;36.722;-4.462;2022-11-28T05:51:21;101332.88;;;13.22;69.84
60725;BME280;59881;36.722;-4.462;2022-11-28T05:53:46;101192.63;;;12.04;69.84
60725;BME280;59881;36.722;-4.462;2022-11-28T05:56:15;101042.25;;;10.77;69.76
60725;BME280;59881;36.722;-4.462;2022-11-28T05:58:41;101332.00;;;13.21;69.99
60725;BME280;59881;36.722;-4.462;2022-11-28T06:01:17;101352.78;;;13.28;69.94
60725;BME280;59881;36.722;-4.462;2022-11-28T06:03:43;101468.22;;;12.89;69.72
60725;BME280;59881;36.722;-4.462;2022-11-28T06:06:14;101352.34;;;13.21;69.80
60725;BME280;59881;36.722;-4.462;2022-11-28T06:08:41;101283.50;;;12.82;69.81
60725;BME280;59881;36.722;-4.462;2022-11-28T06:11:07;101236.50;;;12.33;69.89
60725;BME280;59881;36.722;-4.462;2022-11-28T06:13:33;101249.59;;;12.62;69.83
60725;BME280;59881;36.722;-4.462;2022-11-28T06:15:59;101346.00;;;13.11;69.76
60725;BME280;59881;36.722;-4.462;2022-11-28T06:18:24;101355.16;;;13.05;69.96
60725;BME280;59881;36.722;-4.462;2022-11-28T06:20:50;101352.72;;;13.02;70.17
60725;BME280;59881;36.722;-4.462;2022-11-28T06:23:16;100904.94;;;10.41;70.16
60725;BME280;59881;36.722;-4.462;2022-11-28T06:25:41;100320.41;;;6.67;70.07
60725;BME280;59881;36.722;-4.462;2022-11-28T06:28:07;100746.25;;;9.24;70.31
60725;BME280;59881;36.722;-4.462;2022-11-28T06:30:32;101281.47;;;12.46;70.03
60725;BME280;59881;36.722;-4.462;2022-11-28T06:32:58;100911.59;;;10.03;70.32
60725;BME280;59881;36.722;-4.462;2022-11-28T06:35:23;101473.06;;;12.95;70.78
60725;BME280;59881;36.722;-4.462;2022-11-28T06:37:49;101116.59;;;11.40;70.64
60725;BME280;59881;36.722;-4.462;2022-11-28T06:40:15;101432.28;;;12.43;70.95
60725;BME280;59881;36.722;-4.462;2022-11-28T06:42:40;101473.78;;;12.84;71.13
60725;BME280;59881;36.722;-4.462;2022-11-28T06:45:06;101279.03;;;12.16;71.01
60725;BME280;59881;36.722;-4.462;2022-11-28T06:47:32;101205.50;;;11.81;70.97
60725;BME280;59881;36.722;-4.462;2022-11-28T06:49:57;100959.44;;;10.24;71.08
60725;BME280;59881;36.722;-4.462;2022-11-28T06:52:23;100857.50;;;9.69;70.93
60725;BME280;59881;36.722;-4.462;2022-11-28T06:54:49;101394.25;;;12.87;71.34
60725;BME280;59881;36.722;-4.462;2022-11-28T06:57:14;100554.63;;;7.73;70.86
60725;BME280;59881;36.722;-4.462;2022-11-28T06:59:40;101351.72;;;12.63;71.33
60725;BME280;59881;36.722;-4.462;2022-11-28T07:02:05;101386.84;;;12.92;70.95
60725;BME280;59881;36.722;-4.462;2022-11-28T07:04:31;101400.75;;;12.96;71.01
60725;BME280;59881;36.722;-4.462;2022-11-28T07:06:57;101408.06;;;13.05;70.92
60725;BME280;59881;36.722;-4.462;2022-11-28T07:09:23;101383.28;;;12.93;70.58
60725;BME280;59881;36.722;-4.462;2022-11-28T07:11:48;100981.38;;;10.53;69.97
60725;BME280;59881;36.722;-4.462;2022-11-28T07:14:14;101402.50;;;13.22;70.34
60725;BME280;59881;36.722;-4.462;2022-11-28T07:16:39;100943.50;;;10.42;69.68
60725;BME280;59881;36.722;-4.462;2022-11-28T07:19:05;101393.91;;;13.33;69.39
60725;BME280;59881;36.722;-4.462;2022-11-28T07:21:31;101273.34;;;12.89;68.89
60725;BME280;59881;36.722;-4.462;2022-11-28T07:23:58;101416.78;;;14.86;67.19
60725;BME280;59881;36.722;-4.462;2022-11-28T07:26:24;101350.47;;;16.13;63.54
60725;BME280;59881;36.722;-4.462;2022-11-28T07:28:50;101349.69;;;17.63;58.03
60725;BME280;59881;36.722;-4.462;2022-11-28T07:31:18;101399.31;;;19.16;53.45
60725;BME280;59881;36.722;-4.462;2022-11-28T07:33:47;101302.69;;;19.40;49.67
60725;BME280;59881;36.722;-4.462;2022-11-28T07:36:16;101405.88;;;20.91;47.50
60725;BME280;59881;36.722;-4.462;2022-11-28T07:38:45;101403.44;;;21.78;44.59
60725;BME280;59881;36.722;-4.462;2022-11-28T07:41:13;101403.16;;;22.49;42.08
60725;BME280;59881;36.722;-4.462;2022-11-28T07:43:40;101395.72;;;23.19;41.12
60725;BME280;59881;36.722;-4.462;2022-11-28T07:46:09;101397.66;;;23.99;39.02
60725;BME280;59881;36.722;-4.462;2022-11-28T07:48:36;100962.44;;;21.88;37.47
60725;BME280;59881;36.722;-4.462;2022-11-28T07:51:06;101420.88;;;25.02;36.03
60725;BME280;59881;36.722;-4.462;2022-11-28T07:53:32;101417.19;;;25.26;35.41
60725;BME280;59881;36.722;-4.462;2022-11-28T07:56:03;101092.56;;;23.68;34.92
60725;BME280;59881;36.722;-4.462;2022-11-28T07:58:29;101402.47;;;25.89;33.86
60725;BME280;59881;36.722;-4.462;2022-11-28T08:00:54;101162.38;;;24.62;33.89
60725;BME280;59881;36.722;-4.462;2022-11-28T08:03:20;101492.38;;;26.79;33.15
60725;BME280;59881;36.722;-4.462;2022-11-28T08:05:45;101384.06;;;27.02;31.56
60725;BME280;59881;36.722;-4.462;2022-11-28T08:08:17;101427.59;;;27.50;30.69
60725;BME280;59881;36.722;-4.462;2022-11-28T08:10:44;101313.13;;;27.21;30.17
60725;BME280;59881;36.722;-4.462;2022-11-28T08:13:11;101410.19;;;28.36;29.15
60725;BME280;59881;36.722;-4.462;2022-11-28T08:15:38;101233.69;;;27.71;28.49
60725;BME280;59881;36.722;-4.462;2022-11-28T08:18:04;101427.16;;;29.33;27.24
60725;BME280;59881;36.722;-4.462;2022-11-28T08:20:30;101400.22;;;29.24;27.12
60725;BME280;59881;36.722;-4.462;2022-11-28T08:22:56;101437.19;;;29.79;26.82
60725;BME280;59881;36.722;-4.462;2022-11-28T08:25:22;101479.38;;;30.66;25.71
60725;BME280;59881;36.722;-4.462;2022-11-28T08:27:47;101371.06;;;31.20;24.60
60725;BME280;59881;36.722;-4.462;2022-11-28T08:30:13;101430.91;;;31.95;23.51
60725;BME280;59881;36.722;-4.462;2022-11-28T08:32:38;101195.81;;;31.03;23.05
60725;BME280;59881;36.722;-4.462;2022-11-28T08:35:04;101422.50;;;32.83;22.14
60725;BME280;59881;36.722;-4.462;2022-11-28T08:37:30;101446.13;;;33.31;21.51
60725;BME280;59881;36.722;-4.462;2022-11-28T08:39:56;101439.59;;;33.20;21.71
60725;BME280;59881;36.722;-4.462;2022-11-28T08:42:22;101301.16;;;32.97;20.89
60725;BME280;59881;36.722;-4.462;2022-11-28T08:44:47;101353.34;;;34.35;20.06
60725;BME280;59881;36.722;-4.462;2022-11-28T08:47:13;101420.59;;;35.22;19.33
60725;BME280;59881;36.722;-4.462;2022-11-28T08:49:39;101373.84;;;35.29;18.69
60725;BME280;59881;36.722;-4.462;2022-11-28T08:52:04;101395.28;;;35.88;17.61
60725;BME280;59881;36.722;-4.462;2022-11-28T08:54:30;101270.69;;;35.35;18.07
60725;BME280;59881;36.722;-4.462;2022-11-28T08:56:56;101465.41;;;37.59;16.74
60725;BME280;59881;36.722;-4.462;2022-11-28T08:59:23;101468.84;;;38.34;16.17
60725;BME280;59881;36.722;-4.462;2022-11-28T09:01:51;101268.09;;;37.13;15.56
60725;BME280;59881;36.722;-4.462;2022-11-28T09:04:17;101490.34;;;38.42;15.43
60725;BME280;59881;36.722;-4.462;2022-11-28T09:06:42;101464.13;;;37.77;15.21
60725;BME280;59881;36.722;-4.462;2022-11-28T09:09:08;101484.50;;;37.81;15.35
60725;BME280;59881;36.722;-4.462;2022-11-28T09:11:34;101475.56;;;37.58;15.18
60725;BME280;59881;36.722;-4.462;2022-11-28T09:13:59;101225.38;;;37.48;14.28
60725;BME280;59881;36.722;-4.462;2022-11-28T09:16:25;101459.09;;;39.36;14.36
60725;BME280;59881;36.722;-4.462;2022-11-28T09:18:50;101487.53;;;40.42;12.88
60725;BME280;59881;36.722;-4.462;2022-11-28T09:21:16;101494.13;;;40.96;12.56
60725;BME280;59881;36.722;-4.462;2022-11-28T09:23:43;101496.06;;;41.64;12.02
60725;BME280;59881;36.722;-4.462;2022-11-28T09:26:14;101485.66;;;42.09;12.16
60725;BME280;59881;36.722;-4.462;2022-11-28T09:28:41;101495.88;;;42.71;11.72
60725;BME280;59881;36.722;-4.462;2022-11-28T09:31:07;101493.50;;;43.81;11.10
60725;BME280;59881;36.722;-4.462;2022-11-28T09:33:33;101494.50;;;44.91;10.74
60725;BME280;59881;36.722;-4.462;2022-11-28T09:36:04;101505.50;;;45.73;9.75
60725;BME280;59881;36.722;-4.462;2022-11-28T09:38:29;101547.47;;;44.58;9.63
60725;BME280;59881;36.722;-4.462;2022-11-28T09:40:55;101371.78;;;38.64;12.95
60725;BME280;59881;36.722;-4.462;2022-11-28T09:43:35;101525.72;;;32.12;17.74
60725;BME280;59881;36.722;-4.462;2022-11-28T09:46:10;101531.59;;;27.41;22.17
60725;BME280;59881;36.722;-4.462;2022-11-28T09:48:41;101490.53;;;24.90;25.39
60725;BME280;59881;36.722;-4.462;2022-11-28T09:53:46;101470.34;;;24.46;26.82
60725;BME280;59881;36.722;-4.462;2022-11-28T09:56:15;101517.00;;;26.84;24.14
60725;BME280;59881;36.722;-4.462;2022-11-28T09:58:50;101505.03;;;31.79;19.36
60725;BME280;59881;36.722;-4.462;2022-11-28T10:15:58;101474.38;;;41.18;11.36
60725;BME280;59881;36.722;-4.462;2022-11-28T10:18:49;101478.66;;;44.41;8.98
60725;BME280;59881;36.722;-4.462;2022-11-28T10:23:59;101469.31;;;39.50;11.07
60725;BME280;59881;36.722;-4.462;2022-11-28T10:26:37;101450.66;;;41.41;10.74
60725;BME280;59881;36.722;-4.462;2022-11-28T10:31:42;101434.22;;;43.64;9.18
60725;BME280;59881;36.722;-4.462;2022-11-28T10:34:17;101451.44;;;42.00;10.33
60725;BME280;59881;36.722;-4.462;2022-11-28T10:36:52;101467.81;;;44.04;8.73
60725;BME280;59881;36.722;-4.462;2022-11-28T10:39:20;101494.53;;;45.45;8.64
60725;BME280;59881;36.722;-4.462;2022-11-28T10:50:38;101491.38;;;26.20;21.51
60725;BME280;59881;36.722;-4.462;2022-11-28T10:58:57;101501.16;;;20.94;27.63
60725;BME280;59881;36.722;-4.462;2022-11-28T11:01:31;101546.81;;;20.17;28.67
60725;BME280;59881;36.722;-4.462;2022-11-28T11:03:58;101498.84;;;19.77;29.27
60725;BME280;59881;36.722;-4.462;2022-11-28T11:06:25;101412.38;;;19.29;29.17
60725;BME280;59881;36.722;-4.462;2022-11-28T11:08:51;101477.47;;;19.48;29.70
60725;BME280;59881;36.722;-4.462;2022-11-28T11:14:04;101475.34;;;19.02;29.16
60725;BME280;59881;36.722;-4.462;2022-11-28T11:16:50;101476.00;;;18.85;29.55
60725;BME280;59881;36.722;-4.462;2022-11-28T11:19:28;101474.53;;;18.71;29.46
60725;BME280;59881;36.722;-4.462;2022-11-28T11:22:18;101691.63;;;18.60;29.58
60725;BME280;59881;36.722;-4.462;2022-11-28T11:27:30;101421.56;;;18.26;29.89
60725;BME280;59881;36.722;-4.462;2022-11-28T11:29:56;101509.16;;;18.00;29.69
60725;BME280;59881;36.722;-4.462;2022-11-28T11:32:27;101442.03;;;18.16;29.77
60725;BME280;59881;36.722;-4.462;2022-11-28T11:34:55;101463.84;;;18.31;29.85
60725;BME280;59881;36.722;-4.462;2022-11-28T11:39:53;101453.13;;;18.21;30.85
60725;BME280;59881;36.722;-4.462;2022-11-28T11:42:24;101451.53;;;18.09;31.40
60725;BME280;59881;36.722;-4.462;2022-11-28T11:44:50;100940.25;;;14.85;31.60
60725;BME280;59881;36.722;-4.462;2022-11-28T11:47:15;101450.88;;;17.95;31.65
60725;BME280;59881;36.722;-4.462;2022-11-28T11:49:43;101413.06;;;17.81;31.63
60725;BME280;59881;36.722;-4.462;2022-11-28T11:57:24;101419.06;;;17.94;31.23
60725;BME280;59881;36.722;-4.462;2022-11-28T12:05:10;101421.19;;;18.00;31.24
60725;BME280;59881;36.722;-4.462;2022-11-28T12:10:27;101343.78;;;17.59;31.11
60725;BME280;59881;36.722;-4.462;2022-11-28T12:12:54;100851.00;;;14.63;30.87
60725;BME280;59881;36.722;-4.462;2022-11-28T12:39:30;101372.72;;;18.26;31.14
60725;BME280;59881;36.722;-4.462;2022-11-28T12:45:32;101372.19;;;18.32;30.84
60725;BME280;59881;36.722;-4.462;2022-11-28T12:50:35;101349.72;;;18.34;31.01
60725;BME280;59881;36.722;-4.462;2022-11-28T12:56:15;101346.09;;;18.35;31.15
60725;BME280;59881;36.722;-4.462;2022-11-28T13:01:54;101341.19;;;18.40;31.48
60725;BME280;59881;36.722;-4.462;2022-11-28T13:04:50;100915.41;;;15.83;31.64
60725;BME280;59881;36.722;-4.462;2022-11-28T13:07:28;101306.88;;;18.26;31.64
60725;BME280;59881;36.722;-4.462;2022-11-28T13:10:03;101342.19;;;18.49;31.79
60725;BME280;59881;36.722;-4.462;2022-11-28T13:12:57;101331.63;;;18.48;31.86
60725;BME280;59881;36.722;-4.462;2022-11-28T13:20:58;101328.25;;;18.46;32.34
60725;BME280;59881;36.722;-4.462;2022-11-28T13:28:28;101315.63;;;18.38;32.39
60725;BME280;59881;36.722;-4.462;2022-11-28T13:31:04;101299.63;;;18.38;32.44
60725;BME280;59881;36.722;-4.462;2022-11-28T13:36:00;101270.38;;;18.17;32.77
60725;BME280;59881;36.722;-4.462;2022-11-28T13:41:34;101375.38;;;18.16;32.36
60725;BME280;59881;36.722;-4.462;2022-11-28T13:44:20;100436.75;;;13.24;32.86
60725;BME280;59881;36.722;-4.462;2022-11-28T13:46:48;101268.03;;;18.33;32.24
60725;BME280;59881;36.722;-4.462;2022-11-28T13:49:23;101228.13;;;18.12;32.36
60725;BME280;59881;36.722;-4.462;2022-11-28T13:54:40;101072.22;;;17.17;32.75
60725;BME280;59881;36.722;-4.462;2022-11-28T13:57:14;101267.03;;;18.34;32.74
60725;BME280;59881;36.722;-4.462;2022-11-28T13:59:50;101237.41;;;18.18;32.75
60725;BME280;59881;36.722;-4.462;2022-11-28T14:02:22;100355.97;;;12.88;32.98
60725;BME280;59881;36.722;-4.462;2022-11-28T14:04:49;101258.06;;;18.35;32.67
60725;BME280;59881;36.722;-4.462;2022-11-28T14:07:29;101260.88;;;18.34;32.61
60725;BME280;59881;36.722;-4.462;2022-11-28T14:12:42;100382.50;;;12.97;32.59
60725;BME280;59881;36.722;-4.462;2022-11-28T14:20:36;101261.00;;;18.32;32.41
60725;BME280;59881;36.722;-4.462;2022-11-28T14:23:16;100807.69;;;15.48;32.17
60725;BME280;59881;36.722;-4.462;2022-11-28T14:25:45;101228.66;;;18.06;32.47
60725;BME280;59881;36.722;-4.462;2022-11-28T14:28:21;100845.69;;;15.70;32.36
60725;BME280;59881;36.722;-4.462;2022-11-28T14:30:47;101328.22;;;17.86;32.11
60725;BME280;59881;36.722;-4.462;2022-11-28T14:33:23;101261.25;;;18.19;32.40
60725;BME280;59881;36.722;-4.462;2022-11-28T14:43:31;101268.41;;;18.19;32.39
60725;BME280;59881;36.722;-4.462;2022-11-28T14:49:06;101237.63;;;17.95;32.43
60725;BME280;59881;36.722;-4.462;2022-11-28T14:54:25;101426.22;;;17.93;32.54
60725;BME280;59881;36.722;-4.462;2022-11-28T14:56:53;101275.56;;;18.09;32.70
60725;BME280;59881;36.722;-4.462;2022-11-28T14:59:24;101350.16;;;17.89;32.65
60725;BME280;59881;36.722;-4.462;2022-11-28T15:02:07;101270.50;;;18.06;32.45
60725;BME280;59881;36.722;-4.462;2022-11-28T15:10:06;101261.06;;;18.02;32.09
60725;BME280;59881;36.722;-4.462;2022-11-28T15:15:21;101018.59;;;16.51;32.20
60725;BME280;59881;36.722;-4.462;2022-11-28T15:17:48;101205.53;;;17.66;31.70
60725;BME280;59881;36.722;-4.462;2022-11-28T15:20:26;101184.75;;;17.50;31.92
60725;BME280;59881;36.722;-4.462;2022-11-28T15:22:53;101183.06;;;17.49;31.92
60725;BME280;59881;36.722;-4.462;2022-11-28T15:25:24;101159.75;;;17.32;31.90
60725;BME280;59881;36.722;-4.462;2022-11-28T15:27:50;101263.44;;;17.95;31.83
60725;BME280;59881;36.722;-4.462;2022-11-28T15:30:23;101270.72;;;17.93;31.91
60725;BME280;59881;36.722;-4.462;2022-11-28T15:32:59;101235.44;;;17.70;32.01
60725;BME280;59881;36.722;-4.462;2022-11-28T15:35:25;101209.44;;;17.52;32.21
60725;BME280;59881;36.722;-4.462;2022-11-28T15:37:56;101260.75;;;17.85;32.22
60725;BME280;59881;36.722;-4.462;2022-11-28T15:40:35;101269.00;;;17.82;32.36
60725;BME280;59881;36.722;-4.462;2022-11-28T15:43:02;100783.09;;;14.83;32.51
60725;BME280;59881;36.722;-4.462;2022-11-28T15:45:31;100776.16;;;14.05;32.60
60725;BME280;59881;36.722;-4.462;2022-11-28T15:47:59;101498.13;;;17.72;32.59
60725;BME280;59881;36.722;-4.462;2022-11-28T15:50:30;101221.94;;;17.31;32.48
60725;BME280;59881;36.722;-4.462;2022-11-28T15:55:23;101299.19;;;17.62;32.21
60725;BME280;59881;36.722;-4.462;2022-11-28T15:57:49;101291.47;;;17.58;32.30
60725;BME280;59881;36.722;-4.462;2022-11-28T16:00:16;100924.56;;;14.94;32.64
60725;BME280;59881;36.722;-4.462;2022-11-28T16:02:43;101263.72;;;17.30;32.25
60725;BME280;59881;36.722;-4.462;2022-11-28T16:05:16;101263.41;;;17.24;32.40
60725;BME280;59881;36.722;-4.462;2022-11-28T16:07:49;101272.63;;;17.20;32.38
60725;BME280;59881;36.722;-4.462;2022-11-28T16:10:29;101308.47;;;16.94;32.40
60725;BME280;59881;36.722;-4.462;2022-11-28T16:13:08;101310.50;;;17.23;32.55
60725;BME280;59881;36.722;-4.462;2022-11-28T16:15:35;101424.66;;;17.16;32.77
60725;BME280;59881;36.722;-4.462;2022-11-28T16:18:01;101209.28;;;16.39;32.75
60725;BME280;59881;36.722;-4.462;2022-11-28T16:20:34;100885.34;;;14.42;32.76